sensor_id;sensor_type;location;lat;lon;timestamp;P1;durP1;ratioP1;P2;durP2;ratioP2
11141;SDS011;5625;50.122;19.864;2023-03-01T00:01:18;34.67;;;21.97;;
11141;SDS011;5625;50.122;19.864;2023-03-01T00:03:48;36.83;;;23.20;;
11141;SDS011;5625;50.122;19.864;2023-03-01T00:06:17;37.63;;;23.33;;
11141;SDS011;5625;50.122;19.864;2023-03-01T00:08:47;34.33;;;22.73;;
11141;SDS011;5625;50.122;19.864;2023-03-01T00:11:16;35.00;;;23.33;;
11141;SDS011;5625;50.122;19.864;2023-03-01T00:13:47;36.50;;;23.10;;
11141;SDS011;5625;50.122;19.864;2023-03-01T00:16:17;38.87;;;23.43;;
11141;SDS011;5625;50.122;19.864;2023-03-01T00:18:46;42.63;;;24.60;;
11141;SDS011;5625;50.122;19.864;2023-03-01T00:21:14;42.50;;;26.90;;
11141;SDS011;5625;50.122;19.864;2023-03-01T00:23:42;47.53;;;29.63;;
11141;SDS011;5625;50.122;19.864;2023-03-01T00:26:12;49.40;;;31.83;;
11141;SDS011;5625;50.122;19.864;2023-03-01T00:28:41;51.63;;;32.97;;
11141;SDS011;5625;50.122;19.864;2023-03-01T00:31:11;58.43;;;36.13;;
11141;SDS011;5625;50.122;19.864;2023-03-01T00:33:40;57.20;;;35.10;;
11141;SDS011;5625;50.122;19.864;2023-03-01T00:36:09;61.93;;;38.67;;
11141;SDS011;5625;50.122;19.864;2023-03-01T00:38:39;56.47;;;36.00;;
11141;SDS011;5625;50.122;19.864;2023-03-01T00:41:10;53.83;;;35.00;;
11141;SDS011;5625;50.122;19.864;2023-03-01T00:43:41;54.00;;;34.13;;
11141;SDS011;5625;50.122;19.864;2023-03-01T00:46:13;53.90;;;35.03;;
11141;SDS011;5625;50.122;19.864;2023-03-01T00:48:42;50.13;;;33.30;;
11141;SDS011;5625;50.122;19.864;2023-03-01T00:51:10;63.40;;;39.97;;
11141;SDS011;5625;50.122;19.864;2023-03-01T00:53:40;71.80;;;44.73;;
11141;SDS011;5625;50.122;19.864;2023-03-01T00:56:09;78.07;;;48.67;;
11141;SDS011;5625;50.122;19.864;2023-03-01T00:58:40;77.97;;;48.20;;
11141;SDS011;5625;50.122;19.864;2023-03-01T01:01:11;85.03;;;50.33;;
11141;SDS011;5625;50.122;19.864;2023-03-01T01:03:45;81.97;;;49.83;;
11141;SDS011;5625;50.122;19.864;2023-03-01T01:06:15;89.63;;;53.77;;
11141;SDS011;5625;50.122;19.864;2023-03-01T01:08:44;90.30;;;53.77;;
11141;SDS011;5625;50.122;19.864;2023-03-01T01:11:12;89.00;;;54.27;;
11141;SDS011;5625;50.122;19.864;2023-03-01T01:13:43;91.30;;;52.37;;
11141;SDS011;5625;50.122;19.864;2023-03-01T01:16:12;87.53;;;52.53;;
11141;SDS011;5625;50.122;19.864;2023-03-01T01:18:40;89.60;;;53.30;;
11141;SDS011;5625;50.122;19.864;2023-03-01T01:21:09;91.83;;;54.40;;
11141;SDS011;5625;50.122;19.864;2023-03-01T01:23:38;89.73;;;53.67;;
11141;SDS011;5625;50.122;19.864;2023-03-01T01:26:07;86.23;;;52.20;;
11141;SDS011;5625;50.122;19.864;2023-03-01T01:28:37;92.43;;;52.47;;
11141;SDS011;5625;50.122;19.864;2023-03-01T01:31:06;93.10;;;53.83;;
11141;SDS011;5625;50.122;19.864;2023-03-01T01:33:35;88.77;;;50.40;;
11141;SDS011;5625;50.122;19.864;2023-03-01T01:36:03;79.40;;;48.03;;
11141;SDS011;5625;50.122;19.864;2023-03-01T01:38:32;81.30;;;48.70;;
11141;SDS011;5625;50.122;19.864;2023-03-01T01:41:00;84.57;;;47.83;;
11141;SDS011;5625;50.122;19.864;2023-03-01T01:43:29;81.23;;;48.13;;
11141;SDS011;5625;50.122;19.864;2023-03-01T01:46:00;82.90;;;48.73;;
11141;SDS011;5625;50.122;19.864;2023-03-01T01:48:34;78.83;;;47.30;;
11141;SDS011;5625;50.122;19.864;2023-03-01T01:51:09;71.90;;;46.03;;
11141;SDS011;5625;50.122;19.864;2023-03-01T01:53:40;71.23;;;43.87;;
11141;SDS011;5625;50.122;19.864;2023-03-01T01:56:10;63.83;;;41.00;;
11141;SDS011;5625;50.122;19.864;2023-03-01T01:58:40;60.20;;;39.47;;
11141;SDS011;5625;50.122;19.864;2023-03-01T02:01:10;60.10;;;36.80;;
11141;SDS011;5625;50.122;19.864;2023-03-01T02:03:40;59.37;;;37.23;;
11141;SDS011;5625;50.122;19.864;2023-03-01T02:06:12;59.23;;;35.83;;
11141;SDS011;5625;50.122;19.864;2023-03-01T02:08:45;54.33;;;34.47;;
11141;SDS011;5625;50.122;19.864;2023-03-01T02:11:16;53.97;;;33.33;;
11141;SDS011;5625;50.122;19.864;2023-03-01T02:13:46;51.43;;;32.70;;
11141;SDS011;5625;50.122;19.864;2023-03-01T02:16:16;53.97;;;33.37;;
11141;SDS011;5625;50.122;19.864;2023-03-01T02:18:46;51.20;;;33.00;;
11141;SDS011;5625;50.122;19.864;2023-03-01T02:21:17;48.47;;;31.27;;
11141;SDS011;5625;50.122;19.864;2023-03-01T02:23:58;48.50;;;30.27;;
11141;SDS011;5625;50.122;19.864;2023-03-01T02:26:34;47.80;;;28.83;;
11141;SDS011;5625;50.122;19.864;2023-03-01T02:29:08;47.07;;;29.03;;
11141;SDS011;5625;50.122;19.864;2023-03-01T02:31:36;45.27;;;29.97;;
11141;SDS011;5625;50.122;19.864;2023-03-01T02:34:15;45.90;;;28.23;;
11141;SDS011;5625;50.122;19.864;2023-03-01T02:36:45;45.53;;;28.63;;
11141;SDS011;5625;50.122;19.864;2023-03-01T02:39:20;44.10;;;28.20;;
11141;SDS011;5625;50.122;19.864;2023-03-01T02:41:53;43.87;;;26.90;;
11141;SDS011;5625;50.122;19.864;2023-03-01T02:44:24;43.63;;;27.93;;
11141;SDS011;5625;50.122;19.864;2023-03-01T02:46:53;46.83;;;27.63;;
11141;SDS011;5625;50.122;19.864;2023-03-01T02:49:24;47.73;;;30.80;;
11141;SDS011;5625;50.122;19.864;2023-03-01T02:54:57;65.43;;;40.23;;
11141;SDS011;5625;50.122;19.864;2023-03-01T02:57:28;69.00;;;41.87;;
11141;SDS011;5625;50.122;19.864;2023-03-01T02:59:59;64.37;;;39.13;;
11141;SDS011;5625;50.122;19.864;2023-03-01T03:02:33;60.63;;;38.10;;
11141;SDS011;5625;50.122;19.864;2023-03-01T03:05:07;64.77;;;40.03;;
11141;SDS011;5625;50.122;19.864;2023-03-01T03:07:37;62.83;;;38.60;;
11141;SDS011;5625;50.122;19.864;2023-03-01T03:10:08;63.47;;;38.73;;
11141;SDS011;5625;50.122;19.864;2023-03-01T03:12:38;64.73;;;38.43;;
11141;SDS011;5625;50.122;19.864;2023-03-01T03:15:09;64.87;;;37.60;;
11141;SDS011;5625;50.122;19.864;2023-03-01T03:17:41;58.87;;;37.20;;
11141;SDS011;5625;50.122;19.864;2023-03-01T03:20:12;59.47;;;36.83;;
11141;SDS011;5625;50.122;19.864;2023-03-01T03:22:45;60.47;;;37.43;;
11141;SDS011;5625;50.122;19.864;2023-03-01T03:25:15;64.90;;;39.50;;
11141;SDS011;5625;50.122;19.864;2023-03-01T03:27:44;71.77;;;41.40;;
11141;SDS011;5625;50.122;19.864;2023-03-01T03:30:16;65.37;;;40.83;;
11141;SDS011;5625;50.122;19.864;2023-03-01T03:32:46;64.83;;;39.73;;
11141;SDS011;5625;50.122;19.864;2023-03-01T03:35:18;65.07;;;40.83;;
11141;SDS011;5625;50.122;19.864;2023-03-01T03:37:47;63.87;;;38.63;;
11141;SDS011;5625;50.122;19.864;2023-03-01T03:40:35;72.77;;;42.43;;
11141;SDS011;5625;50.122;19.864;2023-03-01T03:43:05;68.07;;;41.37;;
11141;SDS011;5625;50.122;19.864;2023-03-01T03:45:36;70.13;;;42.73;;
11141;SDS011;5625;50.122;19.864;2023-03-01T03:48:05;65.97;;;40.80;;
11141;SDS011;5625;50.122;19.864;2023-03-01T03:50:35;66.17;;;42.87;;
11141;SDS011;5625;50.122;19.864;2023-03-01T03:53:04;66.10;;;41.00;;
11141;SDS011;5625;50.122;19.864;2023-03-01T03:55:34;68.40;;;41.10;;
11141;SDS011;5625;50.122;19.864;2023-03-01T03:58:08;64.07;;;40.10;;
11141;SDS011;5625;50.122;19.864;2023-03-01T04:00:39;60.10;;;37.67;;
11141;SDS011;5625;50.122;19.864;2023-03-01T04:03:09;59.90;;;35.97;;
11141;SDS011;5625;50.122;19.864;2023-03-01T04:05:39;58.50;;;35.93;;
11141;SDS011;5625;50.122;19.864;2023-03-01T04:08:08;61.77;;;35.17;;
11141;SDS011;5625;50.122;19.864;2023-03-01T04:10:37;57.60;;;34.67;;
11141;SDS011;5625;50.122;19.864;2023-03-01T04:13:06;60.63;;;35.53;;
11141;SDS011;5625;50.122;19.864;2023-03-01T04:15:36;59.00;;;35.83;;
11141;SDS011;5625;50.122;19.864;2023-03-01T04:18:06;57.10;;;35.17;;
11141;SDS011;5625;50.122;19.864;2023-03-01T04:20:35;55.17;;;34.87;;
11141;SDS011;5625;50.122;19.864;2023-03-01T04:23:04;55.07;;;35.37;;
11141;SDS011;5625;50.122;19.864;2023-03-01T04:25:42;54.77;;;35.27;;
11141;SDS011;5625;50.122;19.864;2023-03-01T04:28:15;53.10;;;33.63;;
11141;SDS011;5625;50.122;19.864;2023-03-01T04:30:45;54.47;;;34.57;;
11141;SDS011;5625;50.122;19.864;2023-03-01T04:33:13;54.70;;;34.30;;
11141;SDS011;5625;50.122;19.864;2023-03-01T04:35:41;49.67;;;33.07;;
11141;SDS011;5625;50.122;19.864;2023-03-01T04:38:09;53.60;;;32.87;;
11141;SDS011;5625;50.122;19.864;2023-03-01T04:40:37;51.00;;;31.57;;
11141;SDS011;5625;50.122;19.864;2023-03-01T04:43:05;61.60;;;37.70;;
11141;SDS011;5625;50.122;19.864;2023-03-01T04:45:33;59.47;;;35.33;;
11141;SDS011;5625;50.122;19.864;2023-03-01T04:48:06;56.47;;;35.03;;
11141;SDS011;5625;50.122;19.864;2023-03-01T04:50:34;58.83;;;38.47;;
11141;SDS011;5625;50.122;19.864;2023-03-01T04:53:02;63.43;;;40.03;;
11141;SDS011;5625;50.122;19.864;2023-03-01T04:55:30;68.17;;;40.47;;
11141;SDS011;5625;50.122;19.864;2023-03-01T04:57:58;61.20;;;38.73;;
11141;SDS011;5625;50.122;19.864;2023-03-01T05:00:26;66.07;;;42.30;;
11141;SDS011;5625;50.122;19.864;2023-03-01T05:02:55;64.20;;;40.40;;
11141;SDS011;5625;50.122;19.864;2023-03-01T05:05:30;68.27;;;40.17;;
11141;SDS011;5625;50.122;19.864;2023-03-01T05:08:00;64.07;;;40.70;;
11141;SDS011;5625;50.122;19.864;2023-03-01T05:10:29;63.93;;;39.67;;
11141;SDS011;5625;50.122;19.864;2023-03-01T05:13:01;59.83;;;36.40;;
11141;SDS011;5625;50.122;19.864;2023-03-01T05:15:31;59.13;;;36.03;;
11141;SDS011;5625;50.122;19.864;2023-03-01T05:17:59;57.40;;;35.00;;
11141;SDS011;5625;50.122;19.864;2023-03-01T05:20:29;58.23;;;34.73;;
11141;SDS011;5625;50.122;19.864;2023-03-01T05:22:59;57.33;;;36.60;;
11141;SDS011;5625;50.122;19.864;2023-03-01T05:25:31;52.63;;;33.97;;
11141;SDS011;5625;50.122;19.864;2023-03-01T05:28:00;57.13;;;35.20;;
11141;SDS011;5625;50.122;19.864;2023-03-01T05:30:30;62.43;;;39.87;;
11141;SDS011;5625;50.122;19.864;2023-03-01T05:32:59;61.03;;;38.03;;
11141;SDS011;5625;50.122;19.864;2023-03-01T05:35:29;66.73;;;39.97;;
11141;SDS011;5625;50.122;19.864;2023-03-01T05:38:01;73.00;;;42.03;;
11141;SDS011;5625;50.122;19.864;2023-03-01T05:40:29;59.77;;;35.73;;
11141;SDS011;5625;50.122;19.864;2023-03-01T05:42:57;56.10;;;35.53;;
11141;SDS011;5625;50.122;19.864;2023-03-01T05:45:25;50.83;;;32.80;;
11141;SDS011;5625;50.122;19.864;2023-03-01T05:47:54;45.67;;;28.57;;
11141;SDS011;5625;50.122;19.864;2023-03-01T05:50:23;40.83;;;27.67;;
11141;SDS011;5625;50.122;19.864;2023-03-01T05:52:57;43.67;;;27.53;;
11141;SDS011;5625;50.122;19.864;2023-03-01T05:55:27;41.60;;;26.47;;
11141;SDS011;5625;50.122;19.864;2023-03-01T05:57:57;41.03;;;26.33;;
11141;SDS011;5625;50.122;19.864;2023-03-01T06:00:28;40.57;;;27.10;;
11141;SDS011;5625;50.122;19.864;2023-03-01T06:02:57;39.53;;;25.10;;
11141;SDS011;5625;50.122;19.864;2023-03-01T06:05:29;43.10;;;27.83;;
11141;SDS011;5625;50.122;19.864;2023-03-01T06:08:01;47.03;;;28.90;;
11141;SDS011;5625;50.122;19.864;2023-03-01T06:10:30;42.10;;;27.70;;
11141;SDS011;5625;50.122;19.864;2023-03-01T06:12:58;40.83;;;26.73;;
11141;SDS011;5625;50.122;19.864;2023-03-01T06:15:26;41.70;;;27.47;;
11141;SDS011;5625;50.122;19.864;2023-03-01T06:17:55;46.47;;;28.57;;
11141;SDS011;5625;50.122;19.864;2023-03-01T06:20:26;47.90;;;30.97;;
11141;SDS011;5625;50.122;19.864;2023-03-01T06:22:55;53.00;;;32.63;;
11141;SDS011;5625;50.122;19.864;2023-03-01T06:25:25;58.03;;;33.77;;
11141;SDS011;5625;50.122;19.864;2023-03-01T06:27:54;51.07;;;34.33;;
11141;SDS011;5625;50.122;19.864;2023-03-01T06:30:23;51.23;;;33.70;;
11141;SDS011;5625;50.122;19.864;2023-03-01T06:32:52;54.47;;;34.93;;
11141;SDS011;5625;50.122;19.864;2023-03-01T06:35:26;50.60;;;33.00;;
11141;SDS011;5625;50.122;19.864;2023-03-01T06:37:57;54.10;;;33.40;;
11141;SDS011;5625;50.122;19.864;2023-03-01T06:40:27;53.97;;;36.17;;
11141;SDS011;5625;50.122;19.864;2023-03-01T06:42:55;57.93;;;35.00;;
11141;SDS011;5625;50.122;19.864;2023-03-01T06:45:25;57.73;;;37.17;;
11141;SDS011;5625;50.122;19.864;2023-03-01T06:48:00;60.00;;;38.63;;
11141;SDS011;5625;50.122;19.864;2023-03-01T06:50:29;56.57;;;38.20;;
11141;SDS011;5625;50.122;19.864;2023-03-01T06:52:59;60.27;;;40.37;;
11141;SDS011;5625;50.122;19.864;2023-03-01T06:55:28;62.80;;;39.57;;
11141;SDS011;5625;50.122;19.864;2023-03-01T06:57:57;64.37;;;40.27;;
11141;SDS011;5625;50.122;19.864;2023-03-01T07:00:26;70.47;;;42.40;;
11141;SDS011;5625;50.122;19.864;2023-03-01T07:02:57;65.70;;;43.63;;
11141;SDS011;5625;50.122;19.864;2023-03-01T07:05:28;71.83;;;45.00;;
11141;SDS011;5625;50.122;19.864;2023-03-01T07:07:56;73.87;;;44.47;;
11141;SDS011;5625;50.122;19.864;2023-03-01T07:10:24;70.03;;;45.97;;
11141;SDS011;5625;50.122;19.864;2023-03-01T07:12:55;68.43;;;43.63;;
11141;SDS011;5625;50.122;19.864;2023-03-01T07:15:23;68.27;;;45.53;;
11141;SDS011;5625;50.122;19.864;2023-03-01T07:17:52;68.20;;;43.83;;
11141;SDS011;5625;50.122;19.864;2023-03-01T07:20:20;64.77;;;42.23;;
11141;SDS011;5625;50.122;19.864;2023-03-01T07:22:50;56.43;;;39.93;;
11141;SDS011;5625;50.122;19.864;2023-03-01T07:25:18;61.07;;;38.80;;
11141;SDS011;5625;50.122;19.864;2023-03-01T07:27:48;61.07;;;41.30;;
11141;SDS011;5625;50.122;19.864;2023-03-01T07:30:21;68.80;;;44.47;;
11141;SDS011;5625;50.122;19.864;2023-03-01T07:32:52;63.63;;;41.80;;
11141;SDS011;5625;50.122;19.864;2023-03-01T07:35:21;61.67;;;42.20;;
11141;SDS011;5625;50.122;19.864;2023-03-01T07:37:49;64.17;;;43.43;;
11141;SDS011;5625;50.122;19.864;2023-03-01T07:40:17;54.60;;;39.20;;
11141;SDS011;5625;50.122;19.864;2023-03-01T07:42:46;57.53;;;38.93;;
11141;SDS011;5625;50.122;19.864;2023-03-01T07:45:14;57.20;;;38.17;;
11141;SDS011;5625;50.122;19.864;2023-03-01T07:47:44;54.43;;;37.87;;
11141;SDS011;5625;50.122;19.864;2023-03-01T07:50:12;47.50;;;35.77;;
11141;SDS011;5625;50.122;19.864;2023-03-01T07:52:41;49.80;;;35.20;;
11141;SDS011;5625;50.122;19.864;2023-03-01T07:55:12;52.43;;;35.63;;
11141;SDS011;5625;50.122;19.864;2023-03-01T07:57:40;43.83;;;34.03;;
11141;SDS011;5625;50.122;19.864;2023-03-01T08:00:10;46.50;;;33.63;;
11141;SDS011;5625;50.122;19.864;2023-03-01T08:02:39;45.97;;;34.50;;
11141;SDS011;5625;50.122;19.864;2023-03-01T08:05:09;41.97;;;31.20;;
11141;SDS011;5625;50.122;19.864;2023-03-01T08:07:37;40.97;;;30.70;;
11141;SDS011;5625;50.122;19.864;2023-03-01T08:10:06;39.67;;;30.00;;
11141;SDS011;5625;50.122;19.864;2023-03-01T08:12:34;36.57;;;29.10;;
11141;SDS011;5625;50.122;19.864;2023-03-01T08:15:03;35.10;;;27.30;;
11141;SDS011;5625;50.122;19.864;2023-03-01T08:17:34;35.63;;;27.67;;
11141;SDS011;5625;50.122;19.864;2023-03-01T08:20:02;38.30;;;27.67;;
11141;SDS011;5625;50.122;19.864;2023-03-01T08:22:34;35.77;;;26.20;;
11141;SDS011;5625;50.122;19.864;2023-03-01T08:25:02;36.13;;;26.03;;
11141;SDS011;5625;50.122;19.864;2023-03-01T08:27:33;34.47;;;26.53;;
11141;SDS011;5625;50.122;19.864;2023-03-01T08:30:01;35.57;;;27.07;;
11141;SDS011;5625;50.122;19.864;2023-03-01T08:32:32;34.23;;;24.50;;
11141;SDS011;5625;50.122;19.864;2023-03-01T08:35:03;30.67;;;24.37;;
11141;SDS011;5625;50.122;19.864;2023-03-01T08:37:33;34.13;;;25.33;;
11141;SDS011;5625;50.122;19.864;2023-03-01T08:40:01;31.10;;;22.90;;
11141;SDS011;5625;50.122;19.864;2023-03-01T08:42:33;28.87;;;22.07;;
11141;SDS011;5625;50.122;19.864;2023-03-01T08:45:01;31.13;;;21.70;;
11141;SDS011;5625;50.122;19.864;2023-03-01T08:47:29;32.30;;;22.93;;
11141;SDS011;5625;50.122;19.864;2023-03-01T08:49:57;25.80;;;21.57;;
11141;SDS011;5625;50.122;19.864;2023-03-01T08:52:25;27.87;;;21.97;;
11141;SDS011;5625;50.122;19.864;2023-03-01T08:54:55;28.20;;;20.47;;
11141;SDS011;5625;50.122;19.864;2023-03-01T08:57:23;27.40;;;20.97;;
11141;SDS011;5625;50.122;19.864;2023-03-01T08:59:51;31.50;;;21.70;;
11141;SDS011;5625;50.122;19.864;2023-03-01T09:02:22;30.63;;;22.00;;
11141;SDS011;5625;50.122;19.864;2023-03-01T09:04:50;28.63;;;21.70;;
11141;SDS011;5625;50.122;19.864;2023-03-01T09:07:18;30.53;;;21.67;;
11141;SDS011;5625;50.122;19.864;2023-03-01T09:09:46;28.53;;;21.30;;
11141;SDS011;5625;50.122;19.864;2023-03-01T09:12:15;27.03;;;20.50;;
11141;SDS011;5625;50.122;19.864;2023-03-01T09:14:43;26.97;;;20.07;;
11141;SDS011;5625;50.122;19.864;2023-03-01T09:17:14;25.63;;;19.50;;
11141;SDS011;5625;50.122;19.864;2023-03-01T09:19:42;22.50;;;18.70;;
11141;SDS011;5625;50.122;19.864;2023-03-01T09:22:13;23.63;;;16.80;;
11141;SDS011;5625;50.122;19.864;2023-03-01T09:24:41;21.53;;;16.50;;
11141;SDS011;5625;50.122;19.864;2023-03-01T09:27:09;23.73;;;16.23;;
11141;SDS011;5625;50.122;19.864;2023-03-01T09:29:40;19.30;;;15.40;;
11141;SDS011;5625;50.122;19.864;2023-03-01T09:32:08;20.23;;;15.90;;
11141;SDS011;5625;50.122;19.864;2023-03-01T09:34:36;18.97;;;13.73;;
11141;SDS011;5625;50.122;19.864;2023-03-01T09:37:20;20.87;;;16.13;;
11141;SDS011;5625;50.122;19.864;2023-03-01T09:39:48;18.97;;;15.93;;
11141;SDS011;5625;50.122;19.864;2023-03-01T09:42:16;22.10;;;15.90;;
11141;SDS011;5625;50.122;19.864;2023-03-01T09:44:47;20.83;;;14.83;;
11141;SDS011;5625;50.122;19.864;2023-03-01T09:47:19;19.43;;;14.80;;
11141;SDS011;5625;50.122;19.864;2023-03-01T09:49:51;19.90;;;14.40;;
11141;SDS011;5625;50.122;19.864;2023-03-01T09:52:29;17.47;;;14.43;;
11141;SDS011;5625;50.122;19.864;2023-03-01T09:55:04;21.40;;;15.33;;
11141;SDS011;5625;50.122;19.864;2023-03-01T09:57:38;23.87;;;15.70;;
11141;SDS011;5625;50.122;19.864;2023-03-01T10:00:18;19.87;;;14.67;;
11141;SDS011;5625;50.122;19.864;2023-03-01T10:02:56;20.27;;;15.37;;
11141;SDS011;5625;50.122;19.864;2023-03-01T10:05:33;18.73;;;15.80;;
11141;SDS011;5625;50.122;19.864;2023-03-01T10:08:19;19.80;;;15.50;;
11141;SDS011;5625;50.122;19.864;2023-03-01T10:10:57;22.37;;;15.50;;
11141;SDS011;5625;50.122;19.864;2023-03-01T10:13:28;18.97;;;15.30;;
11141;SDS011;5625;50.122;19.864;2023-03-01T10:16:03;18.87;;;15.53;;
11141;SDS011;5625;50.122;19.864;2023-03-01T10:18:37;18.77;;;15.50;;
11141;SDS011;5625;50.122;19.864;2023-03-01T10:21:11;20.00;;;16.27;;
11141;SDS011;5625;50.122;19.864;2023-03-01T10:23:42;17.93;;;14.93;;
11141;SDS011;5625;50.122;19.864;2023-03-01T10:26:14;19.43;;;15.37;;
11141;SDS011;5625;50.122;19.864;2023-03-01T10:28:51;23.60;;;18.17;;
11141;SDS011;5625;50.122;19.864;2023-03-01T10:31:31;20.93;;;16.97;;
11141;SDS011;5625;50.122;19.864;2023-03-01T10:34:08;18.80;;;14.67;;
11141;SDS011;5625;50.122;19.864;2023-03-01T10:36:41;22.30;;;16.00;;
11141;SDS011;5625;50.122;19.864;2023-03-01T10:39:13;25.37;;;17.87;;
11141;SDS011;5625;50.122;19.864;2023-03-01T10:41:54;23.97;;;17.93;;
11141;SDS011;5625;50.122;19.864;2023-03-01T10:44:35;23.20;;;18.33;;
11141;SDS011;5625;50.122;19.864;2023-03-01T10:47:13;25.97;;;20.83;;
11141;SDS011;5625;50.122;19.864;2023-03-01T10:49:53;25.10;;;19.83;;
11141;SDS011;5625;50.122;19.864;2023-03-01T10:52:32;24.20;;;20.03;;
11141;SDS011;5625;50.122;19.864;2023-03-01T10:55:04;24.97;;;20.20;;
11141;SDS011;5625;50.122;19.864;2023-03-01T10:57:50;25.77;;;19.63;;
11141;SDS011;5625;50.122;19.864;2023-03-01T11:00:35;22.20;;;18.47;;
11141;SDS011;5625;50.122;19.864;2023-03-01T11:03:16;27.63;;;19.13;;
11141;SDS011;5625;50.122;19.864;2023-03-01T11:05:52;24.93;;;19.30;;
11141;SDS011;5625;50.122;19.864;2023-03-01T11:08:35;31.47;;;20.97;;
11141;SDS011;5625;50.122;19.864;2023-03-01T11:11:19;28.13;;;21.40;;
11141;SDS011;5625;50.122;19.864;2023-03-01T11:13:52;26.37;;;20.77;;
11141;SDS011;5625;50.122;19.864;2023-03-01T11:16:26;26.67;;;19.80;;
11141;SDS011;5625;50.122;19.864;2023-03-01T11:18:59;24.00;;;20.00;;
11141;SDS011;5625;50.122;19.864;2023-03-01T11:21:33;30.83;;;22.27;;
11141;SDS011;5625;50.122;19.864;2023-03-01T11:24:04;25.67;;;19.77;;
11141;SDS011;5625;50.122;19.864;2023-03-01T11:26:38;24.63;;;18.93;;
11141;SDS011;5625;50.122;19.864;2023-03-01T11:29:12;28.40;;;21.03;;
11141;SDS011;5625;50.122;19.864;2023-03-01T11:31:45;26.53;;;21.13;;
11141;SDS011;5625;50.122;19.864;2023-03-01T11:34:27;24.13;;;19.10;;
11141;SDS011;5625;50.122;19.864;2023-03-01T11:37:09;22.83;;;17.53;;
11141;SDS011;5625;50.122;19.864;2023-03-01T11:39:51;24.10;;;18.60;;
11141;SDS011;5625;50.122;19.864;2023-03-01T11:42:28;21.43;;;16.90;;
11141;SDS011;5625;50.122;19.864;2023-03-01T11:45:07;22.60;;;17.77;;
11141;SDS011;5625;50.122;19.864;2023-03-01T11:47:44;23.70;;;19.60;;
11141;SDS011;5625;50.122;19.864;2023-03-01T11:50:30;22.07;;;17.30;;
11141;SDS011;5625;50.122;19.864;2023-03-01T11:56:05;24.47;;;18.60;;
11141;SDS011;5625;50.122;19.864;2023-03-01T11:58:45;23.97;;;18.47;;
11141;SDS011;5625;50.122;19.864;2023-03-01T12:01:28;21.77;;;16.77;;
11141;SDS011;5625;50.122;19.864;2023-03-01T12:04:11;22.70;;;16.33;;
11141;SDS011;5625;50.122;19.864;2023-03-01T12:06:59;20.30;;;16.47;;
11141;SDS011;5625;50.122;19.864;2023-03-01T12:09:36;20.23;;;16.73;;
11141;SDS011;5625;50.122;19.864;2023-03-01T12:12:27;24.57;;;18.00;;
11141;SDS011;5625;50.122;19.864;2023-03-01T12:18:13;26.00;;;19.13;;
11141;SDS011;5625;50.122;19.864;2023-03-01T12:20:58;26.60;;;20.40;;
11141;SDS011;5625;50.122;19.864;2023-03-01T12:26:41;23.97;;;17.67;;
11141;SDS011;5625;50.122;19.864;2023-03-01T12:29:20;25.27;;;18.57;;
11141;SDS011;5625;50.122;19.864;2023-03-01T12:35:05;21.70;;;16.30;;
11141;SDS011;5625;50.122;19.864;2023-03-01T12:37:45;20.17;;;15.43;;
11141;SDS011;5625;50.122;19.864;2023-03-01T12:40:33;23.13;;;16.13;;
11141;SDS011;5625;50.122;19.864;2023-03-01T12:43:31;24.20;;;17.00;;
11141;SDS011;5625;50.122;19.864;2023-03-01T12:49:01;24.03;;;17.53;;
11141;SDS011;5625;50.122;19.864;2023-03-01T12:51:35;22.40;;;15.93;;
11141;SDS011;5625;50.122;19.864;2023-03-01T12:54:06;20.67;;;15.70;;
11141;SDS011;5625;50.122;19.864;2023-03-01T12:56:42;24.00;;;16.70;;
11141;SDS011;5625;50.122;19.864;2023-03-01T12:59:21;20.60;;;16.53;;
11141;SDS011;5625;50.122;19.864;2023-03-01T13:01:55;20.40;;;15.50;;
11141;SDS011;5625;50.122;19.864;2023-03-01T13:04:31;16.83;;;14.23;;
11141;SDS011;5625;50.122;19.864;2023-03-01T13:07:23;17.90;;;13.40;;
11141;SDS011;5625;50.122;19.864;2023-03-01T13:10:00;18.43;;;14.50;;
11141;SDS011;5625;50.122;19.864;2023-03-01T13:12:44;19.67;;;12.83;;
11141;SDS011;5625;50.122;19.864;2023-03-01T13:15:29;17.03;;;12.83;;
11141;SDS011;5625;50.122;19.864;2023-03-01T13:17:59;17.77;;;13.53;;
11141;SDS011;5625;50.122;19.864;2023-03-01T13:20:33;18.87;;;14.13;;
11141;SDS011;5625;50.122;19.864;2023-03-01T13:23:13;18.90;;;13.10;;
11141;SDS011;5625;50.122;19.864;2023-03-01T13:26:02;19.20;;;12.73;;
11141;SDS011;5625;50.122;19.864;2023-03-01T13:28:38;18.10;;;12.97;;
11141;SDS011;5625;50.122;19.864;2023-03-01T13:34:42;21.90;;;14.93;;
11141;SDS011;5625;50.122;19.864;2023-03-01T13:37:19;22.47;;;15.37;;
11141;SDS011;5625;50.122;19.864;2023-03-01T13:39:59;20.17;;;14.73;;
11141;SDS011;5625;50.122;19.864;2023-03-01T13:42:36;19.50;;;14.03;;
11141;SDS011;5625;50.122;19.864;2023-03-01T13:45:27;24.20;;;15.17;;
11141;SDS011;5625;50.122;19.864;2023-03-01T13:48:08;19.03;;;14.53;;
11141;SDS011;5625;50.122;19.864;2023-03-01T13:50:45;21.77;;;16.10;;
11141;SDS011;5625;50.122;19.864;2023-03-01T13:53:16;20.60;;;15.67;;
11141;SDS011;5625;50.122;19.864;2023-03-01T13:55:47;26.43;;;15.90;;
11141;SDS011;5625;50.122;19.864;2023-03-01T13:58:22;20.30;;;15.83;;
11141;SDS011;5625;50.122;19.864;2023-03-01T14:00:55;21.10;;;16.17;;
11141;SDS011;5625;50.122;19.864;2023-03-01T14:03:25;23.73;;;17.00;;
11141;SDS011;5625;50.122;19.864;2023-03-01T14:06:00;20.67;;;16.00;;
11141;SDS011;5625;50.122;19.864;2023-03-01T14:08:41;21.10;;;14.50;;
11141;SDS011;5625;50.122;19.864;2023-03-01T14:14:39;17.30;;;13.23;;
11141;SDS011;5625;50.122;19.864;2023-03-01T14:20:17;17.10;;;13.43;;
11141;SDS011;5625;50.122;19.864;2023-03-01T14:22:48;20.23;;;14.40;;
11141;SDS011;5625;50.122;19.864;2023-03-01T14:25:23;17.90;;;13.53;;
11141;SDS011;5625;50.122;19.864;2023-03-01T14:27:58;21.03;;;14.43;;
11141;SDS011;5625;50.122;19.864;2023-03-01T14:30:32;21.27;;;15.27;;
11141;SDS011;5625;50.122;19.864;2023-03-01T14:33:04;20.90;;;14.60;;
11141;SDS011;5625;50.122;19.864;2023-03-01T14:35:35;21.43;;;15.20;;
11141;SDS011;5625;50.122;19.864;2023-03-01T14:38:05;22.30;;;15.77;;
11141;SDS011;5625;50.122;19.864;2023-03-01T14:40:34;24.40;;;16.50;;
11141;SDS011;5625;50.122;19.864;2023-03-01T14:43:08;23.80;;;16.40;;
11141;SDS011;5625;50.122;19.864;2023-03-01T14:45:38;23.47;;;16.20;;
11141;SDS011;5625;50.122;19.864;2023-03-01T14:48:06;22.43;;;16.23;;
11141;SDS011;5625;50.122;19.864;2023-03-01T14:50:35;23.27;;;16.27;;
11141;SDS011;5625;50.122;19.864;2023-03-01T14:53:15;24.03;;;15.73;;
11141;SDS011;5625;50.122;19.864;2023-03-01T14:55:46;20.33;;;15.60;;
11141;SDS011;5625;50.122;19.864;2023-03-01T14:58:18;20.47;;;14.97;;
11141;SDS011;5625;50.122;19.864;2023-03-01T15:00:48;19.10;;;14.50;;
11141;SDS011;5625;50.122;19.864;2023-03-01T15:03:20;21.23;;;15.10;;
11141;SDS011;5625;50.122;19.864;2023-03-01T15:05:52;24.60;;;16.03;;
11141;SDS011;5625;50.122;19.864;2023-03-01T15:08:24;22.97;;;16.43;;
11141;SDS011;5625;50.122;19.864;2023-03-01T15:11:01;21.83;;;15.67;;
11141;SDS011;5625;50.122;19.864;2023-03-01T15:13:34;22.57;;;15.97;;
11141;SDS011;5625;50.122;19.864;2023-03-01T15:16:04;27.90;;;16.00;;
11141;SDS011;5625;50.122;19.864;2023-03-01T15:18:35;24.33;;;15.77;;